KCEU/CEU METAR and TAF weather

Enter ICAO airport designator
Station Type Date Time Source
KCEU METAR 2019/12/16 02:54 UTC NOAA

KCEU 160254Z AUTO 00000KT 10SM OVC039 11/07 A3015 RMK AO2 SLP209 T01060067 51005


Station Type Date Time Source
KCEU Decoded METAR 2019/12/16 02:54 UTC NOAA

CLEMSON-OCONEE COUNTY AIRPORT , SC, United States (KCEU) 34-40N 082-53W 268M
Dec 15, 2019 - 09:54 PM EST / 2019.12.16 0254 UTC
Wind: Calm:0
Visibility: 10 mile(s):0
Sky conditions: overcast
Temperature: 51.1 F (10.6 C)
Dew Point: 44.1 F (6.7 C)
Relative Humidity: 76%
Pressure (altimeter): 30.15 in. Hg (1020 hPa)
Pressure tendency: 0.01 inches (0.5 hPa) higher than three hours ago
ob: KCEU 160254Z AUTO 00000KT 10SM OVC039 11/07 A3015 RMK AO2 SLP209 T01060067 51005
cycle: 3

Station Type Date Time Source
KCEU TAF UTC NOAA

Error!

Example: see airport list